Time;durP1;ratioP1;P1;durP2;ratioP2;P2;SDS_P1;SDS_P2;PMS_P1;PMS_P2;Temp;Humidity;BMP_temperature;BMP_pressure;BME280_temperature;BME280_humidity;BME280_pressure;Samples;Min_cycle;Max_cycle;Signal;HPM_P1;HPM_P2
2023/02/24 00:01:23;;;;;;;30.77;17.27;;;;;;;13.26;64.37;96997.00;4952051;28;20806;-71
2023/02/24 00:03:57;;;;;;;24.57;17.70;;;;;;;13.19;64.37;97001.34;4945831;28;20430;-71
2023/02/24 00:06:23;;;;;;;27.97;18.63;;;;;;;13.14;64.41;97006.28;4949178;28;20497;-71
2023/02/24 00:08:49;;;;;;;32.87;20.20;;;;;;;13.12;64.72;97000.38;4948826;28;20461;-71
2023/02/24 00:11:16;;;;;;;32.43;19.20;;;;;;;13.14;64.80;97003.66;4959387;28;20771;-71
2023/02/24 00:13:45;;;;;;;32.50;19.43;;;;;;;13.18;64.98;96994.44;4957764;28;20210;-71
2023/02/24 00:16:13;;;;;;;29.07;19.17;;;;;;;13.22;65.02;97001.00;4949317;28;20442;-71
2023/02/24 00:18:38;;;;;;;27.43;19.30;;;;;;;13.26;64.72;96996.19;4956575;28;20434;-70
2023/02/24 00:21:07;;;;;;;28.83;18.40;;;;;;;13.27;64.50;97000.47;4957183;28;20529;-71
2023/02/24 00:23:35;;;;;;;25.83;17.23;;;;;;;13.30;64.38;96997.47;4951880;28;20281;-71
2023/02/24 00:26:00;;;;;;;25.50;17.53;;;;;;;13.32;64.44;96992.84;4958316;28;21025;-71
2023/02/24 00:28:29;;;;;;;29.93;18.40;;;;;;;13.21;64.28;97002.78;4956722;28;20548;-70
2023/02/24 00:30:56;;;;;;;26.20;18.23;;;;;;;13.10;64.57;96991.88;4955311;28;20178;-70
2023/02/24 00:33:23;;;;;;;25.73;18.60;;;;;;;13.21;64.71;96994.91;4948790;28;21142;-71
2023/02/24 00:35:49;;;;;;;26.57;17.90;;;;;;;13.18;64.30;96989.97;4954292;28;20477;-71
2023/02/24 00:38:15;;;;;;;27.07;19.03;;;;;;;13.08;64.75;96983.31;4949566;28;20442;-71
2023/02/24 00:40:44;;;;;;;26.37;17.60;;;;;;;13.15;64.97;96984.25;4949582;28;20815;-71
2023/02/24 00:43:12;;;;;;;28.80;19.70;;;;;;;13.21;64.57;96984.38;4949173;28;20282;-71
2023/02/24 00:45:38;;;;;;;29.57;19.57;;;;;;;13.19;64.67;96978.47;4955000;28;20453;-71
2023/02/24 00:48:05;;;;;;;29.83;20.20;;;;;;;13.20;65.02;96985.38;4948271;28;20434;-71
2023/02/24 00:50:30;;;;;;;32.67;20.97;;;;;;;13.21;64.94;96980.94;4950746;28;20544;-71
2023/02/24 00:52:56;;;;;;;28.67;19.20;;;;;;;13.20;64.67;96984.56;4930555;28;20493;-70
2023/02/24 00:55:22;;;;;;;32.40;20.57;;;;;;;13.07;64.96;96977.22;4956389;28;20186;-72
2023/02/24 00:57:50;;;;;;;37.53;21.60;;;;;;;13.13;65.32;96981.81;4948132;28;20190;-70
2023/02/24 01:00:18;;;;;;;29.20;19.23;;;;;;;13.18;65.12;96976.03;4933456;28;20272;-71
2023/02/24 01:02:44;;;;;;;31.37;20.30;;;;;;;13.18;65.37;96976.03;4950594;28;20986;-71
2023/02/24 01:05:11;;;;;;;31.57;19.83;;;;;;;13.24;64.86;96977.94;4950960;28;20438;-71
2023/02/24 01:07:37;;;;;;;30.73;21.50;;;;;;;13.24;64.87;96967.41;4936143;29;20194;-71
2023/02/24 01:10:07;;;;;;;36.03;21.33;;;;;;;13.25;64.62;96962.97;4955320;28;20472;-71
2023/02/24 01:12:48;;;;;;;36.13;22.27;;;;;;;13.25;64.53;96968.25;4949802;28;20216;-71
2023/02/24 01:15:17;;;;;;;37.90;21.73;;;;;;;13.25;64.67;96963.78;4956336;28;20547;-72
2023/02/24 01:17:43;;;;;;;39.60;21.63;;;;;;;13.26;64.58;96970.69;4954233;28;20430;-71
2023/02/24 01:20:16;;;;;;;36.93;22.87;;;;;;;13.29;64.05;96959.81;4948566;28;20521;-71
2023/02/24 01:22:44;;;;;;;32.50;21.63;;;;;;;13.31;63.94;96960.47;4953146;28;20265;-71
2023/02/24 01:25:10;;;;;;;29.73;19.43;;;;;;;13.29;63.95;96954.56;4948470;28;20438;-71
2023/02/24 01:27:36;;;;;;;32.90;22.30;;;;;;;13.26;63.95;96960.16;4952848;28;20929;-71
2023/02/24 01:30:03;;;;;;;34.13;21.57;;;;;;;13.32;64.17;96953.38;4957435;28;20284;-71
2023/02/24 01:32:30;;;;;;;34.97;20.67;;;;;;;13.27;63.72;96951.28;4949503;28;21132;-71
2023/02/24 01:34:56;;;;;;;32.30;21.53;;;;;;;13.14;64.35;96948.41;4953182;28;20978;-70
2023/02/24 01:37:22;;;;;;;29.77;22.40;;;;;;;13.14;64.51;96948.41;4951872;28;20480;-70
2023/02/24 01:39:49;;;;;;;36.33;21.20;;;;;;;13.24;64.41;96946.34;4952990;28;20206;-71
2023/02/24 01:42:18;;;;;;;30.23;20.10;;;;;;;13.29;64.05;96949.28;4953993;28;20468;-71
2023/02/24 01:44:46;;;;;;;31.33;21.03;;;;;;;13.35;64.21;96943.34;4946867;28;20452;-70
2023/02/24 01:47:14;;;;;;;34.90;22.70;;;;;;;13.32;64.36;96942.84;4949619;28;20430;-71
2023/02/24 01:49:43;;;;;;;31.40;21.30;;;;;;;13.32;63.95;96937.59;4935089;28;20799;-70
2023/02/24 01:52:26;;;;;;;35.17;21.47;;;;;;;13.34;64.01;96940.88;4932755;28;21000;-70
2023/02/24 01:54:55;;;;;;;30.60;19.00;;;;;;;13.34;63.65;96935.59;4949292;28;20430;-70
2023/02/24 01:57:22;;;;;;;27.40;20.00;;;;;;;13.36;63.59;96938.88;4950187;28;20453;-71
2023/02/24 01:59:50;;;;;;;29.90;20.50;;;;;;;13.30;63.92;96929.03;4943481;28;20898;-70
2023/02/24 02:02:16;;;;;;;29.40;20.03;;;;;;;13.26;63.68;96938.31;4951977;28;20442;-71
2023/02/24 02:04:46;;;;;;;30.43;21.37;;;;;;;13.28;63.77;96934.50;4968105;28;20488;-70
2023/02/24 02:07:14;;;;;;;27.27;19.60;;;;;;;13.24;64.11;96933.19;4951557;28;20194;-70
2023/02/24 02:09:40;;;;;;;29.37;19.67;;;;;;;13.25;63.93;96929.56;4930587;29;20688;-71
2023/02/24 02:12:06;;;;;;;25.60;19.53;;;;;;;13.27;63.78;96924.16;4936089;28;20444;-71
2023/02/24 02:14:32;;;;;;;30.40;20.47;;;;;;;13.28;63.81;96931.06;4957092;28;21047;-70
2023/02/24 02:17:10;;;;;;;30.40;20.27;;;;;;;13.28;63.89;96923.16;4954740;28;20456;-70
2023/02/24 02:19:54;;;;;;;24.90;19.33;;;;;;;13.23;63.46;96928.13;4946260;28;20220;-70
2023/02/24 02:23:02;;;;;;;28.17;19.77;;;;;;;13.19;63.36;96928.47;4951404;28;20881;-71
2023/02/24 02:25:39;;;;;;;38.00;19.70;;;;;;;13.17;63.64;96919.13;4948960;28;20417;-70
2023/02/24 02:28:21;;;;;;;28.07;19.20;;;;;;;13.17;63.35;96911.22;4933795;28;20997;-70
2023/02/24 02:31:00;;;;;;;31.73;20.60;;;;;;;13.19;62.77;96912.69;4940600;29;20545;-70
2023/02/24 02:33:45;;;;;;;27.63;19.37;;;;;;;13.24;62.95;96909.53;4964625;28;20457;-70
2023/02/24 02:36:31;;;;;;;30.80;19.30;;;;;;;13.26;62.97;96904.91;4963002;28;20457;-70
2023/02/24 02:39:11;;;;;;;29.40;19.67;;;;;;;13.19;62.84;96909.25;4935936;29;20426;-71
2023/02/24 02:41:52;;;;;;;31.03;19.97;;;;;;;13.13;63.10;96907.31;4944823;28;20532;-70
2023/02/24 02:44:46;;;;;;;33.37;19.40;;;;;;;13.09;63.08;96895.50;4935760;28;20429;-72
2023/02/24 02:47:19;;;;;;;32.90;19.70;;;;;;;13.13;63.08;96896.78;4950928;28;20437;-72
2023/02/24 02:49:48;;;;;;;32.10;19.87;;;;;;;13.10;63.00;96892.69;4952528;28;20828;-73
2023/02/24 02:52:20;;;;;;;28.50;19.33;;;;;;;13.06;63.09;96886.97;4936239;28;20446;-69
2023/02/24 02:54:51;;;;;;;28.57;20.17;;;;;;;13.10;63.14;96891.91;4941549;28;20514;-70
2023/02/24 02:57:29;;;;;;;29.30;20.27;;;;;;;13.10;63.02;96881.38;4933468;28;20490;-69
2023/02/24 02:59:59;;;;;;;32.27;21.33;;;;;;;13.12;62.75;96874.94;4952146;28;20434;-69
2023/02/24 03:02:29;;;;;;;36.90;21.63;;;;;;;13.14;62.45;96880.00;4967075;28;20445;-71
2023/02/24 03:04:58;;;;;;;34.97;23.53;;;;;;;13.13;62.46;96865.22;4935388;28;20458;-70
2023/02/24 03:07:30;;;;;;;36.10;22.60;;;;;;;13.16;62.70;96876.22;4945672;28;20441;-70
2023/02/24 03:09:59;;;;;;;31.17;22.00;;;;;;;13.13;62.81;96870.47;4956715;28;20792;-70
2023/02/24 03:12:28;;;;;;;26.83;20.17;;;;;;;13.11;62.72;96867.19;4952462;28;20457;-70
2023/02/24 03:14:57;;;;;;;28.90;20.30;;;;;;;12.99;62.85;96870.25;4956903;28;20458;-71
2023/02/24 03:17:26;;;;;;;27.20;18.83;;;;;;;12.86;63.45;96865.56;4942532;28;20422;-71
2023/02/24 03:20:00;;;;;;;30.80;19.83;;;;;;;12.88;63.45;96865.41;4934854;29;20446;-71
2023/02/24 03:22:33;;;;;;;28.90;19.90;;;;;;;12.81;63.96;96861.84;4939071;28;20500;-70
2023/02/24 03:25:00;;;;;;;30.37;19.67;;;;;;;12.87;64.04;96861.13;4935235;29;20516;-71
2023/02/24 03:27:30;;;;;;;27.50;20.00;;;;;;;12.96;64.33;96859.25;4954498;28;20425;-71
2023/02/24 03:30:06;;;;;;;29.73;21.07;;;;;;;12.90;63.91;96858.16;4938847;29;20840;-70
2023/02/24 03:32:42;;;;;;;29.00;20.40;;;;;;;12.92;64.08;96850.91;4968459;28;20456;-70
2023/02/24 03:35:21;;;;;;;30.13;22.43;;;;;;;12.82;63.88;96848.50;4934191;28;20433;-71
2023/02/24 03:37:48;;;;;;;29.93;20.80;;;;;;;12.85;64.02;96856.03;4943067;29;20430;-70
2023/02/24 03:40:14;;;;;;;36.10;20.60;;;;;;;12.90;63.73;96858.97;4938427;28;20465;-71
2023/02/24 03:42:43;;;;;;;31.40;20.93;;;;;;;12.86;64.04;96855.06;4939453;29;20509;-70
2023/02/24 03:45:09;;;;;;;35.53;21.70;;;;;;;12.83;63.84;96857.22;4951691;28;20469;-70
2023/02/24 03:47:35;;;;;;;31.07;21.07;;;;;;;12.84;63.68;96856.25;4954916;28;21722;-69
2023/02/24 03:50:00;;;;;;;29.73;20.43;;;;;;;12.88;63.83;96857.50;4936561;29;20468;-71
2023/02/24 03:53:17;;;;;;;28.47;21.03;;;;;;;12.77;64.10;96850.03;4951329;28;20249;-70
2023/02/24 03:55:57;;;;;;;30.10;21.00;;;;;;;12.87;64.00;96853.22;4947360;28;20206;-71
2023/02/24 03:58:34;;;;;;;31.73;22.07;;;;;;;12.95;63.81;96847.94;4951820;28;20429;-71
2023/02/24 04:01:20;;;;;;;29.83;20.37;;;;;;;12.97;63.77;96851.22;4961914;28;20848;-71
2023/02/24 04:04:01;;;;;;;31.30;21.53;;;;;;;12.95;63.48;96847.94;4942129;29;20434;-71
2023/02/24 04:06:32;;;;;;;32.43;22.33;;;;;;;12.99;63.64;96853.66;4950930;28;21928;-70
2023/02/24 04:09:15;;;;;;;32.40;20.50;;;;;;;12.96;63.38;96854.00;4954676;28;20809;-70
2023/02/24 04:11:45;;;;;;;32.43;20.90;;;;;;;13.03;63.81;96860.22;4941499;28;20472;-70
2023/02/24 04:14:27;;;;;;;32.47;21.07;;;;;;;13.05;63.62;96856.41;4940844;28;20516;-69
2023/02/24 04:16:59;;;;;;;30.17;19.97;;;;;;;13.10;63.41;96857.69;4935691;29;20429;-70
2023/02/24 04:19:28;;;;;;;32.53;20.20;;;;;;;13.05;63.41;96853.75;4950473;28;20465;-71
2023/02/24 04:21:54;;;;;;;32.13;21.20;;;;;;;13.07;63.33;96848.31;4940334;28;20471;-70
2023/02/24 04:24:27;;;;;;;31.17;20.30;;;;;;;13.06;63.55;96854.56;4935152;28;21158;-71
2023/02/24 04:26:57;;;;;;;34.77;22.30;;;;;;;13.01;63.46;96841.94;4934085;29;20789;-70
2023/02/24 04:29:24;;;;;;;34.47;22.10;;;;;;;12.99;63.58;96838.69;4953576;28;20422;-70
2023/02/24 04:31:53;;;;;;;34.30;23.00;;;;;;;12.98;63.89;96841.50;4927367;29;20469;-70
2023/02/24 04:34:19;;;;;;;34.77;21.77;;;;;;;12.98;63.60;96844.94;4934362;28;20519;-70
2023/02/24 04:36:50;;;;;;;33.23;22.90;;;;;;;13.01;63.52;96841.16;4949438;28;20528;-69
2023/02/24 04:39:17;;;;;;;34.07;22.50;;;;;;;12.97;63.47;96838.06;4949689;28;20182;-70
2023/02/24 04:41:49;;;;;;;28.53;20.40;;;;;;;12.79;64.28;96832.25;4950197;28;20450;-70
2023/02/24 04:44:19;;;;;;;31.63;20.77;;;;;;;12.88;63.86;96831.19;4951556;28;20423;-70
2023/02/24 04:46:45;;;;;;;36.40;21.97;;;;;;;12.93;63.86;96825.41;4943999;28;20513;-71
2023/02/24 04:49:11;;;;;;;32.87;20.47;;;;;;;12.78;63.93;96825.38;4949405;28;20911;-70
2023/02/24 04:51:41;;;;;;;33.20;20.47;;;;;;;12.85;64.10;96823.69;4949892;28;20214;-70
2023/02/24 04:54:14;;;;;;;36.67;23.33;;;;;;;12.86;64.18;96822.66;4950760;28;20552;-71
2023/02/24 04:56:40;;;;;;;39.93;24.07;;;;;;;12.93;63.96;96817.53;4950364;28;20469;-71
2023/02/24 04:59:09;;;;;;;38.63;23.07;;;;;;;12.93;63.11;96815.72;4956138;28;20491;-70
2023/02/24 05:01:36;;;;;;;37.30;24.83;;;;;;;12.95;63.13;96808.47;4953782;28;20702;-69
2023/02/24 05:04:01;;;;;;;42.20;25.47;;;;;;;12.93;63.52;96807.00;4958532;28;20429;-69
2023/02/24 05:06:27;;;;;;;42.10;25.17;;;;;;;12.91;63.46;96804.56;4949230;28;20441;-71
2023/02/24 05:08:52;;;;;;;40.43;23.77;;;;;;;12.92;63.27;96810.66;4949790;28;20277;-70
2023/02/24 05:11:18;;;;;;;40.77;24.10;;;;;;;12.93;63.12;96807.84;4949162;28;20222;-70
2023/02/24 05:13:44;;;;;;;48.33;25.70;;;;;;;12.92;63.41;96810.66;4938899;29;20706;-70
2023/02/24 05:16:12;;;;;;;40.10;24.03;;;;;;;12.93;63.26;96805.22;4955971;28;20269;-70
2023/02/24 05:18:38;;;;;;;48.07;25.33;;;;;;;12.97;63.17;96795.13;4935301;29;20440;-70
2023/02/24 05:23:53;;;;;;;42.90;25.60;;;;;;;13.03;62.77;96787.34;4945958;28;20222;-71
2023/02/24 05:26:20;;;;;;;45.40;26.80;;;;;;;12.95;62.65;96779.56;4948017;28;20461;-70
2023/02/24 05:28:50;;;;;;;46.73;25.77;;;;;;;12.96;62.87;96786.44;4951571;28;20196;-70
2023/02/24 05:31:22;;;;;;;49.60;27.90;;;;;;;12.94;62.90;96772.66;4952521;28;20429;-70
2023/02/24 05:33:53;;;;;;;42.93;25.13;;;;;;;12.93;62.92;96768.38;4948500;28;20552;-71
2023/02/24 05:36:19;;;;;;;43.00;25.73;;;;;;;12.96;62.76;96770.66;4948015;28;20434;-69
2023/02/24 05:38:54;;;;;;;47.53;27.47;;;;;;;13.02;62.61;96759.41;4946620;28;20426;-71
2023/02/24 05:41:21;;;;;;;45.07;25.93;;;;;;;12.99;62.61;96759.75;4946516;28;20488;-69
2023/02/24 05:43:54;;;;;;;43.70;27.87;;;;;;;12.96;62.97;96760.16;4952431;28;20522;-70
2023/02/24 05:46:26;;;;;;;54.27;28.77;;;;;;;12.90;62.85;96753.78;4949349;28;20450;-70
2023/02/24 05:48:56;;;;;;;49.10;28.67;;;;;;;12.90;62.87;96751.16;4951944;28;20557;-70
2023/02/24 05:51:23;;;;;;;46.03;28.30;;;;;;;12.93;63.05;96744.72;4950870;28;20487;-70
2023/02/24 05:53:54;;;;;;;52.83;29.20;;;;;;;12.97;62.95;96748.63;4951973;28;20958;-69
2023/02/24 05:56:23;;;;;;;46.47;26.07;;;;;;;12.99;62.81;96748.44;4951359;28;20521;-70
2023/02/24 05:59:00;;;;;;;53.70;28.87;;;;;;;12.96;62.50;96741.72;4945798;28;20429;-69
2023/02/24 06:01:29;;;;;;;51.83;28.50;;;;;;;12.94;62.57;96735.00;4955107;28;21032;-70
2023/02/24 06:03:54;;;;;;;49.90;29.87;;;;;;;12.97;62.58;96735.47;4949882;28;21034;-71
2023/02/24 06:06:22;;;;;;;51.20;28.80;;;;;;;12.94;62.55;96735.84;4951320;28;20430;-71
2023/02/24 06:08:50;;;;;;;45.97;28.93;;;;;;;12.90;62.87;96735.38;4951778;28;20197;-71
2023/02/24 06:11:17;;;;;;;56.73;29.50;;;;;;;12.88;63.07;96742.63;4951804;28;20429;-70
2023/02/24 06:13:46;;;;;;;48.90;27.47;;;;;;;12.83;63.23;96736.25;4924360;28;1086033;-70
2023/02/24 06:16:14;;;;;;;52.37;29.77;;;;;;;12.88;63.29;96734.72;4953027;28;20446;-71
2023/02/24 06:18:40;;;;;;;50.13;29.50;;;;;;;12.83;63.81;96736.25;4952851;28;20505;-70
2023/02/24 06:21:06;;;;;;;51.90;30.17;;;;;;;12.86;63.59;96733.25;4948644;28;20425;-72
2023/02/24 06:23:32;;;;;;;48.07;28.53;;;;;;;12.94;63.65;96730.56;4952224;28;20446;-71
2023/02/24 06:26:04;;;;;;;58.47;30.30;;;;;;;12.97;63.32;96738.09;4960785;28;20187;-72
2023/02/24 06:28:35;;;;;;;58.90;31.10;;;;;;;12.96;63.05;96739.09;4959367;28;21050;-70
2023/02/24 06:31:05;;;;;;;64.50;29.90;;;;;;;12.94;63.09;96733.19;4950218;28;20525;-72
2023/02/24 06:33:33;;;;;;;50.50;28.63;;;;;;;12.91;63.07;96736.19;4954160;28;20214;-71
2023/02/24 06:35:59;;;;;;;56.00;30.00;;;;;;;12.92;63.24;96737.81;4937019;29;20422;-72
2023/02/24 06:38:24;;;;;;;52.37;29.93;;;;;;;12.93;63.41;96731.56;4951989;28;20464;-72
2023/02/24 06:40:51;;;;;;;60.60;31.50;;;;;;;12.93;63.01;96722.84;4952419;28;20430;-70
2023/02/24 06:43:18;;;;;;;54.63;32.13;;;;;;;12.96;63.28;96733.84;4955149;28;20233;-72
2023/02/24 06:45:44;;;;;;;53.07;30.67;;;;;;;12.94;63.28;96727.94;4953009;28;20790;-70
2023/02/24 06:48:10;;;;;;;62.10;31.87;;;;;;;12.94;63.23;96727.94;4960872;28;20848;-73
2023/02/24 06:50:36;;;;;;;57.47;31.50;;;;;;;12.95;63.04;96729.56;4952086;28;20458;-72
2023/02/24 06:53:02;;;;;;;64.13;30.77;;;;;;;12.90;63.12;96726.66;4960610;28;20466;-70
2023/02/24 06:55:28;;;;;;;58.20;31.63;;;;;;;12.87;63.20;96719.94;4952933;28;20477;-71
2023/02/24 06:58:03;;;;;;;63.27;31.27;;;;;;;12.90;63.48;96726.66;4952289;28;20225;-72
2023/02/24 07:00:37;;;;;;;64.43;32.77;;;;;;;12.80;63.68;96723.47;4951862;28;20186;-71
2023/02/24 07:03:16;;;;;;;72.00;33.93;;;;;;;12.83;63.41;96723.91;4952518;28;20499;-70
2023/02/24 07:05:49;;;;;;;62.63;30.77;;;;;;;12.85;63.76;96726.38;4952087;28;20414;-69
2023/02/24 07:08:19;;;;;;;59.03;31.20;;;;;;;12.86;63.69;96725.38;4952255;28;20422;-71
2023/02/24 07:10:54;;;;;;;60.43;34.00;;;;;;;12.88;63.68;96718.13;4957676;28;20433;-69
2023/02/24 07:13:21;;;;;;;58.23;31.00;;;;;;;12.87;63.76;96719.94;4952526;28;20477;-70
2023/02/24 07:15:48;;;;;;;61.40;31.10;;;;;;;12.84;63.76;96719.50;4952231;28;20942;-70
2023/02/24 07:18:14;;;;;;;59.60;31.00;;;;;;;12.80;63.76;96721.63;4952244;28;20423;-69
2023/02/24 07:20:44;;;;;;;56.97;31.27;;;;;;;12.74;64.04;96710.03;4950860;28;20426;-71
2023/02/24 07:23:10;;;;;;;54.53;31.37;;;;;;;12.78;64.11;96710.50;4952293;28;20437;-71
2023/02/24 07:25:36;;;;;;;58.70;31.67;;;;;;;12.82;63.92;96711.75;4954123;28;20435;-71
2023/02/24 07:28:01;;;;;;;57.23;30.83;;;;;;;12.79;64.06;96711.31;4957494;28;20493;-71
2023/02/24 07:30:29;;;;;;;62.90;29.80;;;;;;;12.79;64.40;96696.34;4959038;28;20272;-71
2023/02/24 07:32:55;;;;;;;61.27;31.73;;;;;;;12.83;64.17;96708.13;4951854;28;20677;-70
2023/02/24 07:35:21;;;;;;;54.17;29.77;;;;;;;12.87;64.07;96711.22;4954865;28;20418;-70
2023/02/24 07:37:47;;;;;;;61.70;31.30;;;;;;;12.90;63.64;96701.19;4955663;28;21000;-71
2023/02/24 07:40:16;;;;;;;56.07;28.97;;;;;;;12.88;63.70;96704.97;4951490;28;20174;-71
2023/02/24 07:42:46;;;;;;;63.30;30.93;;;;;;;12.88;64.13;96705.81;4955947;28;20456;-70
2023/02/24 07:45:12;;;;;;;59.60;29.10;;;;;;;12.94;63.87;96704.28;4951659;28;20422;-70
2023/02/24 07:47:39;;;;;;;55.73;29.97;;;;;;;12.88;63.77;96704.97;4951036;28;20482;-70
2023/02/24 07:50:12;;;;;;;46.80;27.00;;;;;;;12.87;64.20;96708.59;4951086;28;20422;-71
2023/02/24 07:52:38;;;;;;;52.57;27.57;;;;;;;12.84;64.04;96707.16;4953295;28;21258;-70
2023/02/24 07:55:03;;;;;;;58.40;28.10;;;;;;;12.82;64.55;96703.88;4953965;28;20455;-73
2023/02/24 07:57:32;;;;;;;52.10;28.67;;;;;;;12.86;64.18;96706.97;4951531;28;20269;-70
2023/02/24 07:59:58;;;;;;;52.87;28.63;;;;;;;12.87;64.36;96693.66;4951021;28;20663;-71
2023/02/24 08:02:24;;;;;;;58.10;28.57;;;;;;;12.81;64.19;96696.97;4934232;28;20469;-71
2023/02/24 08:04:50;;;;;;;49.53;28.30;;;;;;;12.84;64.33;96699.25;4959669;28;20562;-71
2023/02/24 08:07:23;;;;;;;52.00;28.50;;;;;;;12.89;64.29;96701.34;4951589;28;20422;-70
2023/02/24 08:12:34;;;;;;;48.10;27.07;;;;;;;12.76;64.83;96696.72;4950813;28;20466;-70
2023/02/24 08:14:59;;;;;;;50.47;26.93;;;;;;;12.77;64.50;96694.88;4950751;28;20442;-72
2023/02/24 08:17:25;;;;;;;46.50;27.00;;;;;;;12.78;64.69;96699.16;4958709;28;21193;-70
2023/02/24 08:22:54;;;;;;;45.30;26.90;;;;;;;12.78;64.54;96689.47;4948303;28;20449;-69
2023/02/24 08:25:23;;;;;;;47.13;26.33;;;;;;;12.82;64.63;96684.66;4950035;28;20433;-70
2023/02/24 08:27:54;;;;;;;48.40;28.70;;;;;;;12.82;64.32;96685.47;4948454;28;20830;-70
2023/02/24 08:30:22;;;;;;;47.77;28.20;;;;;;;12.92;64.05;96679.16;4950587;28;20422;-70
2023/02/24 08:32:55;;;;;;;55.73;28.33;;;;;;;12.92;64.21;96679.16;4950923;28;20528;-70
2023/02/24 08:35:24;;;;;;;51.03;29.73;;;;;;;13.00;63.92;96671.97;4951153;28;20595;-70
2023/02/24 08:37:54;;;;;;;47.53;28.13;;;;;;;13.10;63.68;96666.44;4950383;28;20418;-70
2023/02/24 08:40:36;;;;;;;45.57;26.37;;;;;;;13.14;63.53;96664.25;4947218;28;20962;-70
2023/02/24 08:43:14;;;;;;;48.47;26.27;;;;;;;13.29;63.34;96661.66;4947537;28;20568;-70
2023/02/24 08:45:55;;;;;;;44.20;24.70;;;;;;;13.56;62.27;96654.91;4950407;28;20466;-70
2023/02/24 08:48:35;;;;;;;38.90;23.67;;;;;;;13.52;62.06;96659.75;4930326;29;20445;-70
2023/02/24 08:51:09;;;;;;;39.87;22.80;;;;;;;13.67;61.23;96651.00;4937447;28;20504;-71
2023/02/24 08:53:39;;;;;;;36.80;22.93;;;;;;;13.83;60.60;96652.59;4958558;28;20470;-69
2023/02/24 08:56:08;;;;;;;36.30;21.17;;;;;;;13.81;60.77;96654.59;4951892;28;20976;-70
2023/02/24 08:58:39;;;;;;;33.53;21.30;;;;;;;13.88;60.24;96644.91;4949664;28;20419;-71
2023/02/24 09:01:17;;;;;;;36.37;20.30;;;;;;;13.90;60.07;96648.19;4944186;28;20438;-70
2023/02/24 09:03:48;;;;;;;35.43;20.70;;;;;;;14.05;59.59;96647.31;4952187;28;20445;-73
2023/02/24 09:06:16;;;;;;;32.97;18.47;;;;;;;14.28;58.96;96634.75;4962155;28;20455;-71
2023/02/24 09:08:43;;;;;;;35.60;19.10;;;;;;;14.62;57.59;96635.03;4950242;28;20453;-71
2023/02/24 09:11:12;;;;;;;35.23;19.37;;;;;;;14.98;57.15;96638.56;4930180;28;22011;-71
2023/02/24 09:13:56;;;;;;;35.33;18.43;;;;;;;15.39;56.39;96634.28;4933453;28;20536;-70
2023/02/24 09:16:23;;;;;;;33.23;16.87;;;;;;;15.37;54.53;96634.50;4954076;28;20493;-70
2023/02/24 09:22:04;;;;;;;25.20;14.20;;;;;;;15.61;53.35;96629.69;4953803;28;21128;-70
2023/02/24 09:24:27;;;;;;;25.60;14.47;;;;;;;15.68;53.39;96625.25;4946805;28;20488;-69
2023/02/24 09:26:57;;;;;;;28.60;13.70;;;;;;;15.66;53.09;96621.97;4950535;28;20426;-68
2023/02/24 09:29:32;;;;;;;24.40;15.47;;;;;;;15.65;52.99;96617.72;4949840;28;21067;-70
2023/02/24 09:32:03;;;;;;;27.70;15.37;;;;;;;15.58;52.60;96616.88;4943554;28;20472;-70
2023/02/24 09:34:37;;;;;;;31.93;14.43;;;;;;;15.40;53.27;96615.59;4950114;28;20466;-71
2023/02/24 09:37:03;;;;;;;28.03;15.40;;;;;;;15.34;53.36;96625.13;4933438;29;20438;-71
2023/02/24 09:40:37;;;;;;;25.50;14.87;;;;;;;15.26;53.07;96621.81;4949155;28;20422;-70
2023/02/24 09:44:54;;;;;;;37.40;14.83;;;;;;;15.02;53.47;96616.84;4948435;28;20466;-71
2023/02/24 09:50:29;;;;;;;31.63;15.77;;;;;;;14.89;53.82;96612.31;4939738;28;20438;-70
2023/02/24 09:53:12;;;;;;;31.53;15.43;;;;;;;14.90;53.82;96607.84;4927176;29;20465;-70
2023/02/24 09:56:02;;;;;;;24.50;14.77;;;;;;;14.85;54.29;96611.09;4935081;28;20433;-70
2023/02/24 09:58:57;;;;;;;23.90;12.80;;;;;;;14.93;53.86;96606.66;4949334;28;20965;-70
2023/02/24 10:01:34;;;;;;;22.70;11.10;;;;;;;14.94;52.97;96609.09;4957154;28;20429;-71
2023/02/24 10:04:34;;;;;;;21.73;11.23;;;;;;;14.93;52.41;96596.94;4950200;28;20500;-70
2023/02/24 10:07:03;;;;;;;16.70;10.03;;;;;;;14.99;52.33;96595.34;4948527;28;20549;-70
2023/02/24 10:09:50;;;;;;;21.97;10.40;;;;;;;14.99;52.47;96600.59;4954355;28;20438;-70
2023/02/24 10:12:19;;;;;;;24.20;8.40;;;;;;;15.03;52.11;96597.38;4951871;28;20477;-71
2023/02/24 10:15:17;;;;;;;21.80;9.83;;;;;;;15.07;51.81;96597.78;4948844;28;20897;-72
2023/02/24 10:17:46;;;;;;;24.23;11.00;;;;;;;14.93;52.20;96596.09;4950246;28;20426;-73
2023/02/24 10:20:27;;;;;;;37.27;10.33;;;;;;;15.00;52.01;96596.94;4933161;29;20421;-72
2023/02/24 10:22:58;;;;;;;19.97;9.13;;;;;;;14.94;51.23;96587.97;4949462;28;20437;-72
2023/02/24 10:25:35;;;;;;;18.40;8.43;;;;;;;14.93;51.73;96580.28;4941709;28;20426;-73
2023/02/24 10:28:10;;;;;;;20.13;8.40;;;;;;;14.99;51.54;96587.41;4965192;28;20447;-73
2023/02/24 10:30:45;;;;;;;20.40;9.13;;;;;;;15.02;51.54;96582.56;4935104;28;20461;-71
2023/02/24 10:33:25;;;;;;;29.97;9.60;;;;;;;15.02;51.34;96579.09;4932157;29;20978;-71
2023/02/24 10:36:02;;;;;;;18.47;9.23;;;;;;;15.04;51.29;96577.91;4936671;28;20476;-73
2023/02/24 10:38:27;;;;;;;24.00;9.33;;;;;;;15.03;51.12;96576.28;4955897;28;20433;-72
2023/02/24 10:40:56;;;;;;;15.97;8.50;;;;;;;15.07;51.43;96576.69;4960754;28;22573;-73
2023/02/24 10:43:30;;;;;;;21.10;8.57;;;;;;;15.07;51.57;96571.41;4957707;28;20217;-72
2023/02/24 10:46:04;;;;;;;16.80;7.80;;;;;;;14.99;51.58;96571.59;4951954;28;20422;-71
2023/02/24 10:48:37;;;;;;;25.47;8.53;;;;;;;14.99;51.73;96574.22;4954501;28;20430;-71
2023/02/24 10:51:08;;;;;;;18.73;9.00;;;;;;;15.00;51.82;96570.53;4952472;28;20426;-71
2023/02/24 10:53:36;;;;;;;18.97;9.37;;;;;;;14.98;52.00;96567.31;4950917;28;21012;-72
2023/02/24 10:56:25;;;;;;;23.47;10.17;;;;;;;14.95;52.16;96560.59;4953787;28;20421;-75
2023/02/24 10:59:29;;;;;;;30.40;10.70;;;;;;;14.85;52.23;96558.31;4964423;28;20441;-72
2023/02/24 11:02:31;;;;;;;20.47;10.90;;;;;;;14.81;51.99;96546.53;4971702;28;20490;-72
2023/02/24 11:08:08;;;;;;;20.37;10.80;;;;;;;14.78;52.58;96540.84;4953586;28;20843;-74
2023/02/24 11:10:51;;;;;;;23.20;11.03;;;;;;;14.80;52.66;96546.72;4954102;28;20430;-70
2023/02/24 11:18:48;;;;;;;23.70;12.47;;;;;;;14.73;52.88;96528.25;4938675;28;20445;-71
2023/02/24 11:21:15;;;;;;;22.10;12.17;;;;;;;14.71;52.93;96522.34;4963088;28;20796;-71
2023/02/24 11:23:45;;;;;;;29.83;13.40;;;;;;;14.66;53.06;96522.91;4966399;28;20442;-72
2023/02/24 11:26:17;;;;;;;24.77;12.57;;;;;;;14.65;53.18;96520.44;4935864;28;20426;-72
2023/02/24 11:29:29;;;;;;;24.10;12.83;;;;;;;14.67;53.09;96518.44;4934204;28;20442;-72
2023/02/24 11:32:08;;;;;;;22.20;12.30;;;;;;;14.57;53.19;96513.50;4933935;28;20838;-72
2023/02/24 11:34:48;;;;;;;25.00;13.70;;;;;;;14.62;53.12;96512.94;4957727;28;20496;-71
2023/02/24 11:37:16;;;;;;;33.63;15.00;;;;;;;14.59;53.06;96508.84;4958102;28;20436;-71
2023/02/24 11:40:01;;;;;;;33.63;14.83;;;;;;;14.57;53.32;96503.78;4953918;28;20545;-72
2023/02/24 11:42:44;;;;;;;28.93;13.60;;;;;;;14.52;53.56;96495.63;4936534;28;20469;-71
2023/02/24 11:45:32;;;;;;;27.10;13.93;;;;;;;14.52;53.41;96490.34;4959693;28;20425;-72
2023/02/24 11:48:02;;;;;;;29.73;13.57;;;;;;;14.44;53.47;96487.88;4967491;28;20426;-71
2023/02/24 11:50:35;;;;;;;26.53;12.97;;;;;;;14.45;53.76;96463.16;4958610;28;20484;-71
2023/02/24 11:53:09;;;;;;;25.20;12.23;;;;;;;14.49;52.75;96467.00;4929913;29;21001;-72
2023/02/24 11:55:41;;;;;;;24.50;11.97;;;;;;;14.43;52.71;96455.41;4935091;29;20864;-70
2023/02/24 11:58:17;;;;;;;25.13;11.97;;;;;;;14.42;52.78;96445.09;4951869;28;20801;-72
2023/02/24 12:01:09;;;;;;;20.47;11.97;;;;;;;14.42;53.03;96445.09;4915474;28;20435;-72
2023/02/24 12:03:41;;;;;;;22.90;10.87;;;;;;;14.44;52.42;96445.72;4948098;28;20454;-70